sensor_id;sensor_type;location;lat;lon;timestamp;P1;durP1;ratioP1;P2;durP2;ratioP2
53267;SDS011;39156;51.176;6.738;2023-05-14T00:01:34;40.90;;;38.40;;
53267;SDS011;39156;51.176;6.738;2023-05-14T00:04:01;42.58;;;39.78;;
53267;SDS011;39156;51.176;6.738;2023-05-14T00:08:53;41.83;;;39.22;;
53267;SDS011;39156;51.176;6.738;2023-05-14T00:11:18;40.85;;;38.30;;
53267;SDS011;39156;51.176;6.738;2023-05-14T00:13:45;41.80;;;39.17;;
53267;SDS011;39156;51.176;6.738;2023-05-14T00:16:11;43.15;;;40.10;;
53267;SDS011;39156;51.176;6.738;2023-05-14T00:18:36;42.40;;;39.83;;
53267;SDS011;39156;51.176;6.738;2023-05-14T00:21:02;43.22;;;40.67;;
53267;SDS011;39156;51.176;6.738;2023-05-14T00:23:28;41.55;;;39.05;;
53267;SDS011;39156;51.176;6.738;2023-05-14T00:25:54;44.58;;;41.50;;
53267;SDS011;39156;51.176;6.738;2023-05-14T00:28:20;43.50;;;40.85;;
53267;SDS011;39156;51.176;6.738;2023-05-14T00:30:45;41.67;;;39.17;;
53267;SDS011;39156;51.176;6.738;2023-05-14T00:33:11;42.38;;;39.78;;
53267;SDS011;39156;51.176;6.738;2023-05-14T00:35:37;42.25;;;39.67;;
53267;SDS011;39156;51.176;6.738;2023-05-14T00:38:02;41.53;;;39.03;;
53267;SDS011;39156;51.176;6.738;2023-05-14T00:40:28;41.22;;;38.47;;
53267;SDS011;39156;51.176;6.738;2023-05-14T00:42:54;42.13;;;39.55;;
53267;SDS011;39156;51.176;6.738;2023-05-14T00:45:20;41.93;;;39.30;;
53267;SDS011;39156;51.176;6.738;2023-05-14T00:47:47;40.50;;;38.03;;
53267;SDS011;39156;51.176;6.738;2023-05-14T00:50:13;42.65;;;40.05;;
53267;SDS011;39156;51.176;6.738;2023-05-14T00:52:40;41.08;;;38.63;;
53267;SDS011;39156;51.176;6.738;2023-05-14T00:55:07;40.53;;;38.03;;
53267;SDS011;39156;51.176;6.738;2023-05-14T00:57:33;43.38;;;40.88;;
53267;SDS011;39156;51.176;6.738;2023-05-14T01:02:27;41.63;;;38.97;;
53267;SDS011;39156;51.176;6.738;2023-05-14T01:04:52;40.97;;;38.47;;
53267;SDS011;39156;51.176;6.738;2023-05-14T01:10:45;41.83;;;39.13;;
53267;SDS011;39156;51.176;6.738;2023-05-14T01:16:32;45.05;;;42.25;;
53267;SDS011;39156;51.176;6.738;2023-05-14T01:18:59;44.58;;;41.53;;
53267;SDS011;39156;51.176;6.738;2023-05-14T01:21:32;42.70;;;40.13;;
53267;SDS011;39156;51.176;6.738;2023-05-14T01:24:02;42.05;;;39.28;;
53267;SDS011;39156;51.176;6.738;2023-05-14T01:26:29;48.45;;;45.33;;
53267;SDS011;39156;51.176;6.738;2023-05-14T01:28:56;44.47;;;41.67;;
53267;SDS011;39156;51.176;6.738;2023-05-14T01:31:33;45.92;;;42.65;;
53267;SDS011;39156;51.176;6.738;2023-05-14T01:34:00;46.25;;;43.15;;
53267;SDS011;39156;51.176;6.738;2023-05-14T01:36:28;48.00;;;44.80;;
53267;SDS011;39156;51.176;6.738;2023-05-14T01:38:55;46.57;;;43.40;;
53267;SDS011;39156;51.176;6.738;2023-05-14T01:41:21;46.25;;;43.05;;
53267;SDS011;39156;51.176;6.738;2023-05-14T01:43:49;47.17;;;44.08;;
53267;SDS011;39156;51.176;6.738;2023-05-14T01:46:18;46.83;;;43.83;;
53267;SDS011;39156;51.176;6.738;2023-05-14T01:48:44;44.30;;;41.13;;
53267;SDS011;39156;51.176;6.738;2023-05-14T01:51:10;46.08;;;43.13;;
53267;SDS011;39156;51.176;6.738;2023-05-14T01:53:38;43.75;;;41.00;;
53267;SDS011;39156;51.176;6.738;2023-05-14T01:56:04;45.33;;;42.33;;
53267;SDS011;39156;51.176;6.738;2023-05-14T01:58:30;44.75;;;41.72;;
53267;SDS011;39156;51.176;6.738;2023-05-14T02:00:56;45.72;;;42.83;;
53267;SDS011;39156;51.176;6.738;2023-05-14T02:03:21;43.83;;;41.00;;
53267;SDS011;39156;51.176;6.738;2023-05-14T02:05:47;46.90;;;42.92;;
53267;SDS011;39156;51.176;6.738;2023-05-14T02:08:13;43.55;;;40.55;;
53267;SDS011;39156;51.176;6.738;2023-05-14T02:10:38;47.25;;;44.25;;
53267;SDS011;39156;51.176;6.738;2023-05-14T02:13:04;47.75;;;44.72;;
53267;SDS011;39156;51.176;6.738;2023-05-14T02:15:30;46.03;;;43.13;;
53267;SDS011;39156;51.176;6.738;2023-05-14T02:17:55;45.05;;;42.15;;
53267;SDS011;39156;51.176;6.738;2023-05-14T02:20:21;43.15;;;40.35;;
53267;SDS011;39156;51.176;6.738;2023-05-14T02:22:47;46.33;;;43.28;;
53267;SDS011;39156;51.176;6.738;2023-05-14T02:25:12;45.40;;;42.60;;
53267;SDS011;39156;51.176;6.738;2023-05-14T02:27:38;43.58;;;40.67;;
53267;SDS011;39156;51.176;6.738;2023-05-14T02:30:04;44.63;;;41.78;;
53267;SDS011;39156;51.176;6.738;2023-05-14T02:32:30;41.08;;;38.47;;
53267;SDS011;39156;51.176;6.738;2023-05-14T02:34:56;43.80;;;40.92;;
53267;SDS011;39156;51.176;6.738;2023-05-14T02:37:22;43.63;;;40.95;;
53267;SDS011;39156;51.176;6.738;2023-05-14T02:39:47;42.97;;;40.30;;
53267;SDS011;39156;51.176;6.738;2023-05-14T02:42:13;44.55;;;41.75;;
53267;SDS011;39156;51.176;6.738;2023-05-14T02:44:39;43.33;;;40.60;;
53267;SDS011;39156;51.176;6.738;2023-05-14T02:47:04;43.58;;;40.75;;
53267;SDS011;39156;51.176;6.738;2023-05-14T02:49:30;43.45;;;40.80;;
53267;SDS011;39156;51.176;6.738;2023-05-14T02:51:56;42.75;;;40.05;;
53267;SDS011;39156;51.176;6.738;2023-05-14T02:54:22;44.22;;;41.45;;
53267;SDS011;39156;51.176;6.738;2023-05-14T02:56:47;43.97;;;41.20;;
53267;SDS011;39156;51.176;6.738;2023-05-14T02:59:13;42.88;;;40.28;;
53267;SDS011;39156;51.176;6.738;2023-05-14T03:01:39;44.08;;;41.20;;
53267;SDS011;39156;51.176;6.738;2023-05-14T03:04:04;42.75;;;40.15;;
53267;SDS011;39156;51.176;6.738;2023-05-14T03:06:30;43.13;;;40.53;;
53267;SDS011;39156;51.176;6.738;2023-05-14T03:08:56;44.78;;;42.00;;
53267;SDS011;39156;51.176;6.738;2023-05-14T03:11:21;45.17;;;42.38;;
53267;SDS011;39156;51.176;6.738;2023-05-14T03:13:47;42.42;;;39.83;;
53267;SDS011;39156;51.176;6.738;2023-05-14T03:16:13;44.17;;;41.38;;
53267;SDS011;39156;51.176;6.738;2023-05-14T03:18:38;43.85;;;41.05;;
53267;SDS011;39156;51.176;6.738;2023-05-14T03:21:04;44.42;;;41.58;;
53267;SDS011;39156;51.176;6.738;2023-05-14T03:23:30;44.38;;;41.58;;
53267;SDS011;39156;51.176;6.738;2023-05-14T03:25:58;44.25;;;41.53;;
53267;SDS011;39156;51.176;6.738;2023-05-14T03:28:25;45.40;;;42.63;;
53267;SDS011;39156;51.176;6.738;2023-05-14T03:30:51;44.80;;;42.03;;
53267;SDS011;39156;51.176;6.738;2023-05-14T03:33:16;45.15;;;42.22;;
53267;SDS011;39156;51.176;6.738;2023-05-14T03:35:42;45.55;;;42.63;;
53267;SDS011;39156;51.176;6.738;2023-05-14T03:38:08;44.50;;;41.70;;
53267;SDS011;39156;51.176;6.738;2023-05-14T03:40:33;46.20;;;43.20;;
53267;SDS011;39156;51.176;6.738;2023-05-14T03:42:59;45.50;;;42.53;;
53267;SDS011;39156;51.176;6.738;2023-05-14T03:45:25;46.22;;;43.03;;
53267;SDS011;39156;51.176;6.738;2023-05-14T03:47:52;47.63;;;44.67;;
53267;SDS011;39156;51.176;6.738;2023-05-14T03:50:18;44.72;;;41.83;;
53267;SDS011;39156;51.176;6.738;2023-05-14T03:52:43;43.53;;;40.88;;
53267;SDS011;39156;51.176;6.738;2023-05-14T03:55:10;43.85;;;41.10;;
53267;SDS011;39156;51.176;6.738;2023-05-14T03:57:35;44.55;;;41.47;;
53267;SDS011;39156;51.176;6.738;2023-05-14T04:00:02;45.13;;;42.22;;
53267;SDS011;39156;51.176;6.738;2023-05-14T04:04:54;46.10;;;43.03;;
53267;SDS011;39156;51.176;6.738;2023-05-14T04:07:20;43.78;;;41.08;;
53267;SDS011;39156;51.176;6.738;2023-05-14T04:09:45;44.42;;;41.72;;
53267;SDS011;39156;51.176;6.738;2023-05-14T04:12:11;42.50;;;40.00;;
53267;SDS011;39156;51.176;6.738;2023-05-14T04:14:37;45.20;;;42.17;;
53267;SDS011;39156;51.176;6.738;2023-05-14T04:17:03;45.72;;;42.88;;
53267;SDS011;39156;51.176;6.738;2023-05-14T04:19:28;45.78;;;42.55;;
53267;SDS011;39156;51.176;6.738;2023-05-14T04:21:54;46.20;;;42.88;;
53267;SDS011;39156;51.176;6.738;2023-05-14T04:24:20;45.72;;;42.72;;
53267;SDS011;39156;51.176;6.738;2023-05-14T04:26:45;44.88;;;41.78;;
53267;SDS011;39156;51.176;6.738;2023-05-14T04:29:11;45.67;;;42.78;;
53267;SDS011;39156;51.176;6.738;2023-05-14T04:31:37;45.88;;;42.88;;
53267;SDS011;39156;51.176;6.738;2023-05-14T04:34:03;47.17;;;44.17;;
53267;SDS011;39156;51.176;6.738;2023-05-14T04:36:29;43.63;;;40.80;;
53267;SDS011;39156;51.176;6.738;2023-05-14T04:38:55;45.30;;;42.35;;
53267;SDS011;39156;51.176;6.738;2023-05-14T04:41:21;44.85;;;42.15;;
53267;SDS011;39156;51.176;6.738;2023-05-14T04:43:48;43.08;;;40.13;;
53267;SDS011;39156;51.176;6.738;2023-05-14T04:46:14;43.85;;;40.42;;
53267;SDS011;39156;51.176;6.738;2023-05-14T04:48:40;41.38;;;38.90;;
53267;SDS011;39156;51.176;6.738;2023-05-14T04:51:05;41.83;;;38.97;;
53267;SDS011;39156;51.176;6.738;2023-05-14T04:53:31;41.15;;;38.67;;
53267;SDS011;39156;51.176;6.738;2023-05-14T04:55:57;39.33;;;37.03;;
53267;SDS011;39156;51.176;6.738;2023-05-14T04:58:23;38.40;;;36.10;;
53267;SDS011;39156;51.176;6.738;2023-05-14T05:00:49;38.10;;;35.83;;
53267;SDS011;39156;51.176;6.738;2023-05-14T05:03:14;37.77;;;35.67;;
53267;SDS011;39156;51.176;6.738;2023-05-14T05:05:40;38.40;;;36.20;;
53267;SDS011;39156;51.176;6.738;2023-05-14T05:08:06;39.33;;;36.97;;
53267;SDS011;39156;51.176;6.738;2023-05-14T05:10:31;37.90;;;35.60;;
53267;SDS011;39156;51.176;6.738;2023-05-14T05:12:57;38.10;;;35.90;;
53267;SDS011;39156;51.176;6.738;2023-05-14T05:15:24;36.65;;;34.55;;
53267;SDS011;39156;51.176;6.738;2023-05-14T05:17:50;38.33;;;36.13;;
53267;SDS011;39156;51.176;6.738;2023-05-14T05:20:15;36.77;;;34.77;;
53267;SDS011;39156;51.176;6.738;2023-05-14T05:22:41;37.83;;;35.63;;
53267;SDS011;39156;51.176;6.738;2023-05-14T05:25:07;38.53;;;36.33;;
53267;SDS011;39156;51.176;6.738;2023-05-14T05:27:33;38.08;;;35.88;;
53267;SDS011;39156;51.176;6.738;2023-05-14T05:30:00;38.63;;;36.27;;
53267;SDS011;39156;51.176;6.738;2023-05-14T05:32:26;38.63;;;36.22;;
53267;SDS011;39156;51.176;6.738;2023-05-14T05:34:51;41.07;;;38.67;;
53267;SDS011;39156;51.176;6.738;2023-05-14T05:37:17;39.93;;;37.43;;
53267;SDS011;39156;51.176;6.738;2023-05-14T05:39:43;39.37;;;37.07;;
53267;SDS011;39156;51.176;6.738;2023-05-14T05:42:09;39.10;;;36.80;;
53267;SDS011;39156;51.176;6.738;2023-05-14T05:44:35;38.43;;;36.23;;
53267;SDS011;39156;51.176;6.738;2023-05-14T05:47:00;35.77;;;32.60;;
53267;SDS011;39156;51.176;6.738;2023-05-14T05:49:26;34.20;;;32.23;;
53267;SDS011;39156;51.176;6.738;2023-05-14T05:51:52;34.43;;;32.50;;
53267;SDS011;39156;51.176;6.738;2023-05-14T05:54:17;33.47;;;31.50;;
53267;SDS011;39156;51.176;6.738;2023-05-14T05:56:43;35.90;;;33.73;;
53267;SDS011;39156;51.176;6.738;2023-05-14T05:59:09;32.97;;;31.07;;
53267;SDS011;39156;51.176;6.738;2023-05-14T06:01:34;33.92;;;31.95;;
53267;SDS011;39156;51.176;6.738;2023-05-14T06:04:00;33.40;;;31.48;;
53267;SDS011;39156;51.176;6.738;2023-05-14T06:06:27;32.85;;;30.92;;
53267;SDS011;39156;51.176;6.738;2023-05-14T06:08:53;33.17;;;31.27;;
53267;SDS011;39156;51.176;6.738;2023-05-14T06:11:19;33.40;;;31.60;;
53267;SDS011;39156;51.176;6.738;2023-05-14T06:13:45;32.80;;;30.60;;
53267;SDS011;39156;51.176;6.738;2023-05-14T06:16:11;32.90;;;31.02;;
53267;SDS011;39156;51.176;6.738;2023-05-14T06:18:37;33.17;;;31.08;;
53267;SDS011;39156;51.176;6.738;2023-05-14T06:21:02;32.05;;;30.15;;
53267;SDS011;39156;51.176;6.738;2023-05-14T06:25:53;33.30;;;31.30;;
53267;SDS011;39156;51.176;6.738;2023-05-14T06:30:45;33.70;;;31.55;;
53267;SDS011;39156;51.176;6.738;2023-05-14T06:33:15;33.20;;;31.27;;
53267;SDS011;39156;51.176;6.738;2023-05-14T06:38:07;33.85;;;31.50;;
53267;SDS011;39156;51.176;6.738;2023-05-14T06:40:38;32.92;;;30.83;;
53267;SDS011;39156;51.176;6.738;2023-05-14T06:43:03;31.90;;;30.00;;
53267;SDS011;39156;51.176;6.738;2023-05-14T06:45:30;32.30;;;30.20;;
53267;SDS011;39156;51.176;6.738;2023-05-14T06:47:56;33.60;;;31.70;;
53267;SDS011;39156;51.176;6.738;2023-05-14T06:50:22;33.35;;;31.25;;
53267;SDS011;39156;51.176;6.738;2023-05-14T06:52:47;32.17;;;30.13;;
53267;SDS011;39156;51.176;6.738;2023-05-14T06:55:13;32.10;;;30.17;;
53267;SDS011;39156;51.176;6.738;2023-05-14T06:57:38;31.83;;;29.73;;
53267;SDS011;39156;51.176;6.738;2023-05-14T07:00:04;31.58;;;29.77;;
53267;SDS011;39156;51.176;6.738;2023-05-14T07:02:39;32.08;;;29.83;;
53267;SDS011;39156;51.176;6.738;2023-05-14T07:05:05;31.08;;;29.27;;
53267;SDS011;39156;51.176;6.738;2023-05-14T07:07:32;31.08;;;29.08;;
53267;SDS011;39156;51.176;6.738;2023-05-14T07:09:58;31.50;;;29.42;;
53267;SDS011;39156;51.176;6.738;2023-05-14T07:12:23;31.70;;;29.80;;
53267;SDS011;39156;51.176;6.738;2023-05-14T07:14:49;30.83;;;29.08;;
53267;SDS011;39156;51.176;6.738;2023-05-14T07:17:15;30.80;;;29.05;;
53267;SDS011;39156;51.176;6.738;2023-05-14T07:19:41;31.45;;;29.63;;
53267;SDS011;39156;51.176;6.738;2023-05-14T07:22:06;32.03;;;29.98;;
53267;SDS011;39156;51.176;6.738;2023-05-14T07:24:32;31.50;;;29.50;;
53267;SDS011;39156;51.176;6.738;2023-05-14T07:26:58;31.02;;;29.02;;
53267;SDS011;39156;51.176;6.738;2023-05-14T07:29:24;31.98;;;30.08;;
53267;SDS011;39156;51.176;6.738;2023-05-14T07:31:50;31.25;;;29.35;;
53267;SDS011;39156;51.176;6.738;2023-05-14T07:34:16;30.67;;;28.88;;
53267;SDS011;39156;51.176;6.738;2023-05-14T07:36:42;30.33;;;28.63;;
53267;SDS011;39156;51.176;6.738;2023-05-14T07:39:07;31.17;;;29.17;;
53267;SDS011;39156;51.176;6.738;2023-05-14T07:41:36;29.55;;;27.77;;
53267;SDS011;39156;51.176;6.738;2023-05-14T07:44:01;30.75;;;28.75;;
53267;SDS011;39156;51.176;6.738;2023-05-14T07:46:27;30.30;;;28.55;;
53267;SDS011;39156;51.176;6.738;2023-05-14T07:48:53;29.67;;;27.77;;
53267;SDS011;39156;51.176;6.738;2023-05-14T07:51:18;30.48;;;28.77;;
53267;SDS011;39156;51.176;6.738;2023-05-14T07:53:44;30.05;;;28.25;;
53267;SDS011;39156;51.176;6.738;2023-05-14T07:56:10;29.48;;;27.77;;
53267;SDS011;39156;51.176;6.738;2023-05-14T07:58:35;31.52;;;29.38;;
53267;SDS011;39156;51.176;6.738;2023-05-14T08:01:01;29.90;;;28.20;;
53267;SDS011;39156;51.176;6.738;2023-05-14T08:03:30;30.10;;;28.30;;
53267;SDS011;39156;51.176;6.738;2023-05-14T08:05:57;30.35;;;28.65;;
53267;SDS011;39156;51.176;6.738;2023-05-14T08:08:22;29.98;;;28.27;;
53267;SDS011;39156;51.176;6.738;2023-05-14T08:10:48;29.65;;;27.90;;
53267;SDS011;39156;51.176;6.738;2023-05-14T08:13:15;29.88;;;27.75;;
53267;SDS011;39156;51.176;6.738;2023-05-14T08:15:40;29.20;;;27.52;;
53267;SDS011;39156;51.176;6.738;2023-05-14T08:18:06;29.00;;;27.20;;
53267;SDS011;39156;51.176;6.738;2023-05-14T08:20:32;31.63;;;29.45;;
53267;SDS011;39156;51.176;6.738;2023-05-14T08:22:57;30.13;;;28.13;;
53267;SDS011;39156;51.176;6.738;2023-05-14T08:25:23;30.13;;;28.35;;
53267;SDS011;39156;51.176;6.738;2023-05-14T08:27:49;29.52;;;27.83;;
53267;SDS011;39156;51.176;6.738;2023-05-14T08:30:14;29.35;;;27.65;;
53267;SDS011;39156;51.176;6.738;2023-05-14T08:32:40;29.65;;;27.67;;
53267;SDS011;39156;51.176;6.738;2023-05-14T08:35:06;29.30;;;27.27;;
53267;SDS011;39156;51.176;6.738;2023-05-14T08:37:32;27.63;;;25.95;;
53267;SDS011;39156;51.176;6.738;2023-05-14T08:39:58;29.15;;;27.45;;
53267;SDS011;39156;51.176;6.738;2023-05-14T08:42:24;30.20;;;27.85;;
53267;SDS011;39156;51.176;6.738;2023-05-14T08:44:55;29.40;;;27.50;;
53267;SDS011;39156;51.176;6.738;2023-05-14T08:47:26;27.33;;;25.63;;
53267;SDS011;39156;51.176;6.738;2023-05-14T08:50:00;28.60;;;26.90;;
53267;SDS011;39156;51.176;6.738;2023-05-14T08:52:32;30.17;;;28.30;;
53267;SDS011;39156;51.176;6.738;2023-05-14T08:55:02;29.42;;;27.55;;
53267;SDS011;39156;51.176;6.738;2023-05-14T08:57:29;31.77;;;28.98;;
53267;SDS011;39156;51.176;6.738;2023-05-14T08:59:57;28.40;;;26.70;;
53267;SDS011;39156;51.176;6.738;2023-05-14T09:02:29;28.95;;;27.08;;
53267;SDS011;39156;51.176;6.738;2023-05-14T09:04:59;27.88;;;25.98;;
53267;SDS011;39156;51.176;6.738;2023-05-14T09:07:26;28.67;;;27.08;;
53267;SDS011;39156;51.176;6.738;2023-05-14T09:09:52;28.02;;;26.48;;
53267;SDS011;39156;51.176;6.738;2023-05-14T09:12:18;28.30;;;26.60;;
53267;SDS011;39156;51.176;6.738;2023-05-14T09:14:45;28.55;;;26.95;;
53267;SDS011;39156;51.176;6.738;2023-05-14T09:17:12;27.67;;;26.08;;
53267;SDS011;39156;51.176;6.738;2023-05-14T09:19:39;27.73;;;26.20;;
53267;SDS011;39156;51.176;6.738;2023-05-14T09:22:07;28.80;;;27.00;;
53267;SDS011;39156;51.176;6.738;2023-05-14T09:24:35;28.08;;;26.48;;
53267;SDS011;39156;51.176;6.738;2023-05-14T09:27:05;29.35;;;27.48;;
53267;SDS011;39156;51.176;6.738;2023-05-14T09:29:32;27.27;;;25.65;;
53267;SDS011;39156;51.176;6.738;2023-05-14T09:31:58;27.38;;;25.70;;
53267;SDS011;39156;51.176;6.738;2023-05-14T09:34:32;26.77;;;25.27;;
53267;SDS011;39156;51.176;6.738;2023-05-14T09:37:03;27.92;;;26.33;;
53267;SDS011;39156;51.176;6.738;2023-05-14T09:39:33;26.63;;;25.05;;
53267;SDS011;39156;51.176;6.738;2023-05-14T09:42:00;28.38;;;26.77;;
53267;SDS011;39156;51.176;6.738;2023-05-14T09:44:27;27.27;;;25.67;;
53267;SDS011;39156;51.176;6.738;2023-05-14T09:46:53;26.92;;;25.25;;
53267;SDS011;39156;51.176;6.738;2023-05-14T09:49:19;26.45;;;24.95;;
53267;SDS011;39156;51.176;6.738;2023-05-14T09:51:45;26.75;;;25.15;;
53267;SDS011;39156;51.176;6.738;2023-05-14T09:54:34;26.80;;;25.30;;
53267;SDS011;39156;51.176;6.738;2023-05-14T09:57:01;28.05;;;26.13;;
53267;SDS011;39156;51.176;6.738;2023-05-14T09:59:26;28.17;;;26.48;;
53267;SDS011;39156;51.176;6.738;2023-05-14T10:01:52;27.88;;;26.20;;
53267;SDS011;39156;51.176;6.738;2023-05-14T10:04:18;28.25;;;26.65;;
53267;SDS011;39156;51.176;6.738;2023-05-14T10:06:44;29.98;;;26.77;;
53267;SDS011;39156;51.176;6.738;2023-05-14T10:09:12;29.50;;;27.48;;
53267;SDS011;39156;51.176;6.738;2023-05-14T10:11:46;28.60;;;26.70;;
53267;SDS011;39156;51.176;6.738;2023-05-14T10:14:17;30.50;;;28.70;;
53267;SDS011;39156;51.176;6.738;2023-05-14T10:16:49;29.77;;;27.98;;
53267;SDS011;39156;51.176;6.738;2023-05-14T10:19:16;29.30;;;27.70;;
53267;SDS011;39156;51.176;6.738;2023-05-14T10:21:47;29.60;;;27.98;;
53267;SDS011;39156;51.176;6.738;2023-05-14T10:24:17;29.77;;;27.98;;
53267;SDS011;39156;51.176;6.738;2023-05-14T10:26:44;31.08;;;29.08;;
53267;SDS011;39156;51.176;6.738;2023-05-14T10:29:09;30.35;;;28.67;;
53267;SDS011;39156;51.176;6.738;2023-05-14T10:31:52;31.45;;;29.65;;
53267;SDS011;39156;51.176;6.738;2023-05-14T10:37:10;31.40;;;29.58;;
53267;SDS011;39156;51.176;6.738;2023-05-14T10:42:10;32.03;;;30.10;;
53267;SDS011;39156;51.176;6.738;2023-05-14T10:44:56;34.28;;;32.17;;
53267;SDS011;39156;51.176;6.738;2023-05-14T10:47:25;34.55;;;32.30;;
53267;SDS011;39156;51.176;6.738;2023-05-14T10:50:00;33.42;;;31.42;;
53267;SDS011;39156;51.176;6.738;2023-05-14T10:52:28;32.70;;;30.70;;
53267;SDS011;39156;51.176;6.738;2023-05-14T10:54:56;33.08;;;31.08;;
53267;SDS011;39156;51.176;6.738;2023-05-14T10:57:27;33.85;;;31.85;;
53267;SDS011;39156;51.176;6.738;2023-05-14T10:59:56;32.85;;;30.75;;
53267;SDS011;39156;51.176;6.738;2023-05-14T11:07:28;31.70;;;29.85;;
53267;SDS011;39156;51.176;6.738;2023-05-14T11:10:06;31.08;;;29.38;;
53267;SDS011;39156;51.176;6.738;2023-05-14T11:12:34;31.15;;;29.45;;
53267;SDS011;39156;51.176;6.738;2023-05-14T11:15:06;30.73;;;28.83;;
53267;SDS011;39156;51.176;6.738;2023-05-14T11:17:34;31.42;;;29.73;;
53267;SDS011;39156;51.176;6.738;2023-05-14T11:20:01;33.22;;;31.23;;
53267;SDS011;39156;51.176;6.738;2023-05-14T11:22:29;32.45;;;30.08;;
53267;SDS011;39156;51.176;6.738;2023-05-14T11:24:55;32.10;;;30.10;;
53267;SDS011;39156;51.176;6.738;2023-05-14T11:27:21;33.15;;;31.15;;
53267;SDS011;39156;51.176;6.738;2023-05-14T11:29:48;33.72;;;31.92;;
53267;SDS011;39156;51.176;6.738;2023-05-14T11:32:15;33.63;;;31.65;;
53267;SDS011;39156;51.176;6.738;2023-05-14T11:34:41;32.92;;;30.92;;
53267;SDS011;39156;51.176;6.738;2023-05-14T11:37:09;34.65;;;32.38;;
53267;SDS011;39156;51.176;6.738;2023-05-14T11:39:36;33.30;;;31.30;;
53267;SDS011;39156;51.176;6.738;2023-05-14T11:42:04;32.65;;;30.85;;
53267;SDS011;39156;51.176;6.738;2023-05-14T11:44:36;32.28;;;30.38;;
53267;SDS011;39156;51.176;6.738;2023-05-14T11:47:03;32.05;;;30.25;;
53267;SDS011;39156;51.176;6.738;2023-05-14T11:49:29;32.17;;;30.25;;
53267;SDS011;39156;51.176;6.738;2023-05-14T11:52:00;33.45;;;31.17;;
53267;SDS011;39156;51.176;6.738;2023-05-14T11:54:28;31.88;;;30.17;;
53267;SDS011;39156;51.176;6.738;2023-05-14T11:56:55;33.45;;;31.65;;
53267;SDS011;39156;51.176;6.738;2023-05-14T11:59:29;33.60;;;31.52;;
53267;SDS011;39156;51.176;6.738;2023-05-14T12:01:56;31.85;;;29.80;;
53267;SDS011;39156;51.176;6.738;2023-05-14T12:04:22;31.55;;;29.85;;
53267;SDS011;39156;51.176;6.738;2023-05-14T12:06:49;33.13;;;30.85;;
53267;SDS011;39156;51.176;6.738;2023-05-14T12:09:16;32.50;;;30.38;;
53267;SDS011;39156;51.176;6.738;2023-05-14T12:11:44;32.70;;;30.52;;
53267;SDS011;39156;51.176;6.738;2023-05-14T12:14:14;31.20;;;29.55;;
53267;SDS011;39156;51.176;6.738;2023-05-14T12:16:43;30.00;;;28.27;;
53267;SDS011;39156;51.176;6.738;2023-05-14T12:19:10;31.33;;;29.55;;
53267;SDS011;39156;51.176;6.738;2023-05-14T12:21:38;30.73;;;28.98;;
53267;SDS011;39156;51.176;6.738;2023-05-14T12:24:07;30.50;;;28.80;;
53267;SDS011;39156;51.176;6.738;2023-05-14T12:26:42;32.38;;;30.58;;
53267;SDS011;39156;51.176;6.738;2023-05-14T12:29:11;32.72;;;30.30;;
53267;SDS011;39156;51.176;6.738;2023-05-14T12:31:43;31.02;;;29.15;;
53267;SDS011;39156;51.176;6.738;2023-05-14T12:34:14;33.05;;;31.23;;
53267;SDS011;39156;51.176;6.738;2023-05-14T12:36:41;32.42;;;30.52;;
53267;SDS011;39156;51.176;6.738;2023-05-14T12:39:07;31.40;;;29.40;;
53267;SDS011;39156;51.176;6.738;2023-05-14T12:41:34;30.90;;;29.25;;
53267;SDS011;39156;51.176;6.738;2023-05-14T12:44:01;32.65;;;30.15;;
53267;SDS011;39156;51.176;6.738;2023-05-14T12:46:29;30.60;;;28.65;;
53267;SDS011;39156;51.176;6.738;2023-05-14T12:48:55;31.52;;;29.73;;
53267;SDS011;39156;51.176;6.738;2023-05-14T12:51:21;34.92;;;32.70;;
53267;SDS011;39156;51.176;6.738;2023-05-14T12:53:47;31.98;;;30.20;;
53267;SDS011;39156;51.176;6.738;2023-05-14T12:56:15;33.25;;;31.42;;
53267;SDS011;39156;51.176;6.738;2023-05-14T12:58:41;30.55;;;28.80;;
53267;SDS011;39156;51.176;6.738;2023-05-14T13:01:07;32.65;;;30.95;;
53267;SDS011;39156;51.176;6.738;2023-05-14T13:03:32;32.05;;;30.25;;
53267;SDS011;39156;51.176;6.738;2023-05-14T13:05:58;33.90;;;32.08;;
53267;SDS011;39156;51.176;6.738;2023-05-14T13:08:24;30.15;;;28.55;;
53267;SDS011;39156;51.176;6.738;2023-05-14T13:10:53;30.15;;;28.50;;
53267;SDS011;39156;51.176;6.738;2023-05-14T13:13:20;31.33;;;29.63;;
53267;SDS011;39156;51.176;6.738;2023-05-14T13:15:46;32.97;;;31.15;;
53267;SDS011;39156;51.176;6.738;2023-05-14T13:18:12;30.80;;;29.20;;
53267;SDS011;39156;51.176;6.738;2023-05-14T13:23:04;32.58;;;30.58;;
53267;SDS011;39156;51.176;6.738;2023-05-14T13:25:30;31.35;;;29.50;;
53267;SDS011;39156;51.176;6.738;2023-05-14T13:27:56;31.60;;;29.77;;
53267;SDS011;39156;51.176;6.738;2023-05-14T13:30:21;32.60;;;30.55;;
53267;SDS011;39156;51.176;6.738;2023-05-14T13:32:47;32.10;;;30.33;;
53267;SDS011;39156;51.176;6.738;2023-05-14T13:35:13;32.58;;;30.85;;
53267;SDS011;39156;51.176;6.738;2023-05-14T13:37:39;31.02;;;29.40;;
53267;SDS011;39156;51.176;6.738;2023-05-14T13:40:07;32.42;;;30.60;;
53267;SDS011;39156;51.176;6.738;2023-05-14T13:42:34;31.48;;;29.77;;
53267;SDS011;39156;51.176;6.738;2023-05-14T13:45:01;32.13;;;30.38;;
53267;SDS011;39156;51.176;6.738;2023-05-14T13:47:27;31.85;;;30.15;;
53267;SDS011;39156;51.176;6.738;2023-05-14T13:49:53;31.10;;;29.38;;
53267;SDS011;39156;51.176;6.738;2023-05-14T13:52:20;32.15;;;30.45;;
53267;SDS011;39156;51.176;6.738;2023-05-14T13:54:46;32.15;;;30.40;;
53267;SDS011;39156;51.176;6.738;2023-05-14T13:59:38;34.00;;;31.90;;
53267;SDS011;39156;51.176;6.738;2023-05-14T14:02:04;32.92;;;30.92;;
53267;SDS011;39156;51.176;6.738;2023-05-14T14:04:30;32.15;;;30.30;;
53267;SDS011;39156;51.176;6.738;2023-05-14T14:06:56;34.15;;;32.15;;
53267;SDS011;39156;51.176;6.738;2023-05-14T14:09:22;32.88;;;30.70;;
53267;SDS011;39156;51.176;6.738;2023-05-14T14:11:49;32.65;;;30.50;;
53267;SDS011;39156;51.176;6.738;2023-05-14T14:14:15;32.30;;;30.50;;
53267;SDS011;39156;51.176;6.738;2023-05-14T14:16:41;32.53;;;30.65;;
53267;SDS011;39156;51.176;6.738;2023-05-14T14:19:07;32.70;;;30.90;;
53267;SDS011;39156;51.176;6.738;2023-05-14T14:21:33;34.30;;;32.13;;
53267;SDS011;39156;51.176;6.738;2023-05-14T14:23:59;34.78;;;32.38;;
53267;SDS011;39156;51.176;6.738;2023-05-14T14:26:26;31.27;;;29.58;;
53267;SDS011;39156;51.176;6.738;2023-05-14T14:28:53;31.08;;;29.10;;
53267;SDS011;39156;51.176;6.738;2023-05-14T14:31:19;34.88;;;32.85;;
53267;SDS011;39156;51.176;6.738;2023-05-14T14:33:45;31.98;;;30.20;;
53267;SDS011;39156;51.176;6.738;2023-05-14T14:36:11;32.58;;;30.77;;
53267;SDS011;39156;51.176;6.738;2023-05-14T14:38:37;32.40;;;30.60;;
53267;SDS011;39156;51.176;6.738;2023-05-14T14:41:03;31.00;;;29.35;;
53267;SDS011;39156;51.176;6.738;2023-05-14T14:43:32;32.83;;;30.92;;
53267;SDS011;39156;51.176;6.738;2023-05-14T14:45:58;33.28;;;31.17;;
53267;SDS011;39156;51.176;6.738;2023-05-14T14:51:03;32.85;;;31.05;;
53267;SDS011;39156;51.176;6.738;2023-05-14T14:53:30;32.03;;;30.25;;
53267;SDS011;39156;51.176;6.738;2023-05-14T14:55:57;32.92;;;31.13;;
53267;SDS011;39156;51.176;6.738;2023-05-14T14:58:24;34.75;;;32.72;;